createdAt,value
2023-05-15T00:01:00.292Z,30.42
2023-05-15T00:07:03.703Z,41.65
2023-05-15T00:13:08.461Z,42.63
2023-05-15T00:19:12.127Z,61.63
2023-05-15T00:25:15.595Z,66.72
2023-05-15T00:31:20.593Z,53.17
2023-05-15T00:37:25.132Z,52.40
2023-05-15T00:43:28.693Z,41.05
2023-05-15T00:49:35.593Z,39.70
2023-05-15T00:55:39.331Z,34.83
2023-05-15T01:01:45.287Z,20.10
2023-05-15T01:07:54.150Z,25.35
2023-05-15T01:13:57.676Z,42.88
2023-05-15T01:20:03.111Z,46.10
2023-05-15T01:26:31.619Z,46.25
2023-05-15T01:32:52.979Z,48.63
2023-05-15T01:38:59.660Z,51.13
2023-05-15T01:45:05.766Z,39.72
2023-05-15T01:51:12.384Z,66.15
2023-05-15T01:57:16.421Z,65.10
2023-05-15T02:03:20.496Z,75.03
2023-05-15T02:09:25.778Z,82.78
2023-05-15T02:15:29.383Z,91.38
2023-05-15T02:21:32.778Z,90.90
2023-05-15T02:27:40.676Z,87.65
2023-05-15T02:33:49.628Z,68.60
2023-05-15T02:39:54.453Z,66.03
2023-05-15T02:45:59.630Z,58.22
2023-05-15T02:52:03.060Z,53.72
2023-05-15T02:58:07.035Z,50.00
2023-05-15T03:04:11.987Z,51.97
2023-05-15T03:10:15.443Z,48.58
2023-05-15T03:16:18.915Z,47.13
2023-05-15T03:22:23.703Z,50.60
2023-05-15T03:28:27.104Z,50.95
2023-05-15T03:34:30.514Z,42.92
2023-05-15T03:40:35.515Z,48.20
2023-05-15T03:46:39.038Z,48.10
2023-05-15T03:52:42.542Z,46.10
2023-05-15T03:58:47.344Z,31.05
2023-05-15T04:04:51.701Z,41.35
2023-05-15T04:10:55.133Z,43.22
2023-05-15T04:16:59.962Z,41.17
2023-05-15T04:23:05.796Z,37.38
2023-05-15T04:29:09.479Z,39.88
2023-05-15T04:35:15.505Z,35.42
2023-05-15T04:41:18.977Z,40.72
2023-05-15T04:47:22.455Z,38.22
2023-05-15T04:53:27.218Z,39.20
2023-05-15T04:59:30.942Z,39.05
2023-05-15T05:05:34.344Z,37.72
2023-05-15T05:11:43.571Z,37.15
2023-05-15T05:17:48.256Z,40.10
2023-05-15T05:23:51.652Z,40.50
2023-05-15T05:29:56.691Z,40.30
2023-05-15T05:36:00.227Z,41.13
2023-05-15T05:42:03.624Z,38.20
2023-05-15T05:48:08.493Z,42.20
2023-05-15T05:54:12.057Z,40.88
2023-05-15T06:00:16.213Z,43.17
2023-05-15T06:06:21.014Z,42.05
2023-05-15T06:12:24.408Z,50.75
2023-05-15T06:18:28.118Z,46.08
2023-05-15T06:24:33.027Z,46.47
2023-05-15T06:30:36.433Z,46.55
2023-05-15T06:36:39.902Z,45.53
2023-05-15T06:42:44.656Z,46.42
2023-05-15T06:48:48.715Z,51.45
2023-05-15T06:54:53.105Z,48.97
2023-05-15T07:00:59.418Z,44.17
2023-05-15T07:07:02.938Z,45.28
2023-05-15T07:13:06.413Z,44.25
2023-05-15T07:19:11.916Z,52.78
2023-05-15T07:25:16.955Z,53.42
2023-05-15T07:31:25.127Z,59.10
2023-05-15T07:37:30.171Z,55.50
2023-05-15T07:43:33.673Z,60.22
2023-05-15T07:49:37.124Z,58.60
2023-05-15T07:55:42.545Z,58.95
2023-05-15T08:01:45.961Z,58.00
2023-05-15T08:07:49.355Z,56.25
2023-05-15T08:13:54.216Z,58.75
2023-05-15T08:19:58.199Z,61.33
2023-05-15T08:26:01.765Z,61.08
2023-05-15T08:32:07.500Z,56.88
2023-05-15T08:38:11.012Z,66.18
2023-05-15T08:44:14.795Z,63.20
2023-05-15T08:50:19.804Z,63.50
2023-05-15T08:56:23.458Z,60.60
2023-05-15T09:02:27.242Z,62.88
2023-05-15T09:08:34.396Z,57.20
2023-05-15T09:14:37.860Z,46.15
2023-05-15T09:20:41.232Z,44.30
2023-05-15T09:26:46.160Z,39.63
2023-05-15T09:32:51.621Z,37.38
2023-05-15T09:39:00.338Z,36.65
2023-05-15T09:45:05.442Z,34.17
2023-05-15T09:51:16.221Z,27.75
2023-05-15T09:57:23.518Z,27.92
2023-05-15T10:03:28.368Z,22.42
2023-05-15T10:09:32.592Z,18.38
2023-05-15T10:15:36.223Z,13.95
2023-05-15T10:21:42.259Z,14.35
2023-05-15T10:27:45.763Z,14.23
2023-05-15T10:33:49.992Z,13.10
2023-05-15T10:39:56.015Z,6.78
2023-05-15T10:46:00.051Z,5.88
2023-05-15T10:52:04.025Z,7.03
2023-05-15T10:58:11.987Z,4.55
2023-05-15T11:04:16.323Z,4.03
2023-05-15T11:10:39.631Z,4.57
2023-05-15T11:16:58.350Z,6.15
2023-05-15T11:23:03.138Z,3.00
2023-05-15T11:29:19.361Z,4.88
2023-05-15T11:35:24.706Z,3.67
2023-05-15T11:41:33.174Z,4.80
2023-05-15T11:47:37.078Z,4.07
2023-05-15T11:53:41.060Z,5.78
2023-05-15T11:59:46.154Z,4.25
2023-05-15T12:05:57.571Z,6.45
2023-05-15T12:12:03.772Z,5.55
2023-05-15T12:18:09.203Z,7.55
2023-05-15T12:24:13.900Z,6.38
2023-05-15T12:30:17.416Z,7.53
2023-05-15T12:36:23.581Z,4.35
2023-05-15T12:42:27.559Z,9.38
2023-05-15T12:48:32.247Z,6.35
2023-05-15T12:54:41.514Z,5.65
2023-05-15T13:00:46.390Z,4.45
2023-05-15T13:06:50.171Z,7.47
2023-05-15T13:12:55.773Z,8.10
2023-05-15T13:18:59.463Z,6.65
2023-05-15T13:25:02.949Z,7.63
2023-05-15T13:31:07.724Z,6.82
2023-05-15T13:37:11.310Z,9.65
2023-05-15T13:43:14.857Z,5.32
2023-05-15T13:49:19.811Z,6.35
2023-05-15T13:55:24.009Z,4.93
2023-05-15T14:01:27.601Z,7.43
2023-05-15T14:07:33.028Z,5.20
2023-05-15T14:13:36.808Z,4.55
2023-05-15T14:19:40.462Z,4.38
2023-05-15T14:25:45.229Z,4.88
2023-05-15T14:31:48.648Z,5.50
2023-05-15T14:37:52.778Z,5.90
2023-05-15T14:43:57.546Z,10.68
2023-05-15T14:50:01.001Z,4.07
2023-05-15T14:56:04.569Z,6.85
2023-05-15T15:02:09.465Z,6.57
2023-05-15T15:08:13.299Z,6.07
2023-05-15T15:14:16.710Z,7.07
2023-05-15T15:20:22.197Z,6.03
2023-05-15T15:26:25.959Z,5.65
2023-05-15T15:32:29.351Z,6.03
2023-05-15T15:38:34.396Z,6.55
2023-05-15T15:44:37.836Z,5.63
2023-05-15T15:50:41.291Z,5.65
2023-05-15T15:56:48.089Z,9.95
2023-05-15T16:02:51.554Z,7.78
2023-05-15T16:08:55.027Z,8.25
2023-05-15T16:15:06.863Z,6.28
2023-05-15T16:21:17.211Z,5.78
2023-05-15T16:27:21.383Z,7.45
2023-05-15T16:33:26.398Z,9.73
2023-05-15T16:39:30.735Z,7.25
2023-05-15T16:45:34.158Z,6.10
2023-05-15T16:51:38.929Z,9.10
2023-05-15T16:57:42.802Z,8.75
2023-05-15T17:03:46.482Z,6.10
2023-05-15T17:09:51.415Z,7.40
2023-05-15T17:15:54.924Z,8.32
2023-05-15T17:21:58.406Z,9.15
2023-05-15T17:28:03.241Z,7.95
2023-05-15T17:34:07.306Z,8.25
2023-05-15T17:40:11.175Z,9.70
2023-05-15T17:46:16.151Z,10.95
2023-05-15T17:52:19.869Z,9.85
2023-05-15T17:58:23.390Z,7.95
2023-05-15T18:04:28.319Z,11.43
2023-05-15T18:10:31.803Z,8.38
2023-05-15T18:16:35.315Z,9.65
2023-05-15T18:22:41.066Z,8.18
2023-05-15T18:28:44.789Z,8.25
2023-05-15T18:34:48.292Z,7.38
2023-05-15T18:40:53.438Z,8.80
2023-05-15T18:46:57.213Z,10.88
2023-05-15T18:53:00.687Z,7.70
2023-05-15T18:59:05.847Z,8.38
2023-05-15T19:05:09.630Z,10.07
2023-05-15T19:11:13.031Z,8.80
2023-05-15T19:17:20.534Z,7.57
2023-05-15T19:23:24.606Z,5.18
2023-05-15T19:29:28.180Z,10.13
2023-05-15T19:35:35.878Z,5.30
2023-05-15T19:41:40.751Z,7.30
2023-05-15T19:47:44.225Z,8.25
2023-05-15T19:53:49.324Z,8.88
2023-05-15T19:59:52.836Z,9.02
2023-05-15T20:05:56.240Z,9.80
2023-05-15T20:12:02.794Z,9.05
2023-05-15T20:18:06.712Z,11.13
2023-05-15T20:24:10.448Z,11.10
2023-05-15T20:30:15.401Z,11.32
2023-05-15T20:36:19.135Z,8.60
2023-05-15T20:42:22.640Z,8.57
2023-05-15T20:48:27.488Z,5.47
2023-05-15T20:54:31.620Z,8.73
2023-05-15T21:00:35.398Z,8.50
2023-05-15T21:06:40.228Z,9.73
2023-05-15T21:12:43.678Z,8.32
2023-05-15T21:18:48.950Z,6.55
2023-05-15T21:24:53.850Z,12.65
2023-05-15T21:30:57.311Z,6.35
2023-05-15T21:37:01.036Z,9.15
2023-05-15T21:43:05.956Z,9.02
2023-05-15T21:49:09.355Z,9.07
2023-05-15T21:55:13.051Z,10.90
2023-05-15T22:01:17.989Z,10.57
2023-05-15T22:07:21.794Z,7.43
2023-05-15T22:13:25.385Z,10.75
2023-05-15T22:19:33.425Z,6.53
2023-05-15T22:25:37.091Z,8.75
2023-05-15T22:31:41.385Z,6.88
2023-05-15T22:37:46.736Z,6.43
2023-05-15T22:43:50.133Z,12.07
2023-05-15T22:49:53.742Z,8.20
2023-05-15T22:55:58.811Z,7.43
2023-05-15T23:02:02.790Z,8.68
2023-05-15T23:08:06.478Z,10.10
2023-05-15T23:14:12.120Z,6.38
2023-05-15T23:20:16.121Z,9.02
2023-05-15T23:26:19.572Z,8.13
2023-05-15T23:32:24.391Z,5.20
2023-05-15T23:38:28.358Z,11.60
2023-05-15T23:44:32.108Z,5.00
2023-05-15T23:50:36.914Z,7.88
2023-05-15T23:56:40.554Z,5.25
